sensor_id;sensor_type;location;lat;lon;timestamp;pressure;altitude;pressure_sealevel;temperature;humidity
29909;BME280;36247;51.952;6.146;2023-04-08T00:02:07;102132.19;;;4.92;100.00
29909;BME280;36247;51.952;6.146;2023-04-08T00:04:36;102135.66;;;4.91;100.00
29909;BME280;36247;51.952;6.146;2023-04-08T02:11:42;102180.28;;;4.03;100.00
29909;BME280;36247;51.952;6.146;2023-04-08T02:14:08;102177.78;;;4.05;100.00
29909;BME280;36247;51.952;6.146;2023-04-08T02:19:33;102178.38;;;4.01;100.00
29909;BME280;36247;51.952;6.146;2023-04-08T02:22:12;102185.34;;;4.00;100.00
29909;BME280;36247;51.952;6.146;2023-04-08T02:24:41;102177.41;;;3.99;100.00
29909;BME280;36247;51.952;6.146;2023-04-08T02:27:09;102179.72;;;3.94;100.00
29909;BME280;36247;51.952;6.146;2023-04-08T02:29:36;102182.91;;;3.75;100.00
29909;BME280;36247;51.952;6.146;2023-04-08T02:32:05;102176.34;;;3.68;100.00
29909;BME280;36247;51.952;6.146;2023-04-08T02:34:31;102187.03;;;3.71;100.00
29909;BME280;36247;51.952;6.146;2023-04-08T02:36:57;102184.25;;;3.55;100.00
29909;BME280;36247;51.952;6.146;2023-04-08T02:39:33;102181.63;;;3.55;100.00
29909;BME280;36247;51.952;6.146;2023-04-08T02:41:59;102187.88;;;3.57;100.00
29909;BME280;36247;51.952;6.146;2023-04-08T02:44:24;102183.22;;;3.66;100.00
29909;BME280;36247;51.952;6.146;2023-04-08T02:46:50;102176.28;;;3.53;100.00
29909;BME280;36247;51.952;6.146;2023-04-08T02:49:16;102189.31;;;3.39;100.00
29909;BME280;36247;51.952;6.146;2023-04-08T02:51:42;102186.88;;;3.42;100.00
29909;BME280;36247;51.952;6.146;2023-04-08T02:54:07;102189.00;;;3.34;100.00
29909;BME280;36247;51.952;6.146;2023-04-08T02:56:34;102189.50;;;3.28;100.00
29909;BME280;36247;51.952;6.146;2023-04-08T02:58:59;102193.16;;;3.30;100.00
29909;BME280;36247;51.952;6.146;2023-04-08T03:01:25;102186.50;;;3.22;100.00
29909;BME280;36247;51.952;6.146;2023-04-08T03:03:51;102191.53;;;3.19;100.00
29909;BME280;36247;51.952;6.146;2023-04-08T03:06:17;102187.31;;;3.21;100.00
29909;BME280;36247;51.952;6.146;2023-04-08T03:08:43;102198.78;;;3.10;100.00
29909;BME280;36247;51.952;6.146;2023-04-08T03:11:08;102193.34;;;3.07;100.00
29909;BME280;36247;51.952;6.146;2023-04-08T03:13:34;102210.88;;;3.08;100.00
29909;BME280;36247;51.952;6.146;2023-04-08T03:16:00;102203.91;;;2.95;100.00
29909;BME280;36247;51.952;6.146;2023-04-08T03:18:26;102212.56;;;2.94;100.00
29909;BME280;36247;51.952;6.146;2023-04-08T03:20:51;102213.69;;;2.84;100.00
29909;BME280;36247;51.952;6.146;2023-04-08T04:45:27;102272.56;;;2.52;100.00
29909;BME280;36247;51.952;6.146;2023-04-08T04:47:54;102267.94;;;2.48;100.00
29909;BME280;36247;51.952;6.146;2023-04-08T04:50:20;102280.19;;;2.49;100.00
29909;BME280;36247;51.952;6.146;2023-04-08T04:52:49;102270.66;;;2.50;100.00
29909;BME280;36247;51.952;6.146;2023-04-08T04:55:15;102278.25;;;2.58;100.00
29909;BME280;36247;51.952;6.146;2023-04-08T04:57:42;102277.47;;;2.47;100.00
29909;BME280;36247;51.952;6.146;2023-04-08T05:00:15;102276.34;;;2.44;100.00
29909;BME280;36247;51.952;6.146;2023-04-08T05:02:44;102282.91;;;2.51;100.00
29909;BME280;36247;51.952;6.146;2023-04-08T05:05:12;102282.28;;;2.41;100.00
29909;BME280;36247;51.952;6.146;2023-04-08T05:07:43;102277.38;;;2.46;100.00
29909;BME280;36247;51.952;6.146;2023-04-08T05:10:10;102287.25;;;2.50;100.00
29909;BME280;36247;51.952;6.146;2023-04-08T05:12:41;102293.06;;;2.46;100.00
29909;BME280;36247;51.952;6.146;2023-04-08T05:15:09;102289.28;;;2.29;100.00
29909;BME280;36247;51.952;6.146;2023-04-08T05:17:36;102289.34;;;2.42;100.00
29909;BME280;36247;51.952;6.146;2023-04-08T05:20:03;102288.19;;;2.39;100.00
29909;BME280;36247;51.952;6.146;2023-04-08T05:22:29;102292.91;;;2.56;100.00
29909;BME280;36247;51.952;6.146;2023-04-08T06:09:54;102327.03;;;3.22;100.00
29909;BME280;36247;51.952;6.146;2023-04-08T06:12:21;102339.06;;;3.31;100.00
29909;BME280;36247;51.952;6.146;2023-04-08T06:14:47;102333.09;;;3.34;100.00
29909;BME280;36247;51.952;6.146;2023-04-08T06:17:13;102337.72;;;3.38;100.00
29909;BME280;36247;51.952;6.146;2023-04-08T06:19:42;102330.78;;;3.52;100.00
29909;BME280;36247;51.952;6.146;2023-04-08T06:22:08;102344.00;;;3.53;100.00
29909;BME280;36247;51.952;6.146;2023-04-08T06:24:34;102338.75;;;3.53;100.00
29909;BME280;36247;51.952;6.146;2023-04-08T06:27:01;102347.34;;;3.51;100.00
29909;BME280;36247;51.952;6.146;2023-04-08T06:29:30;102348.44;;;3.68;100.00
29909;BME280;36247;51.952;6.146;2023-04-08T06:34:41;102349.53;;;3.85;100.00
29909;BME280;36247;51.952;6.146;2023-04-08T06:41:07;102358.03;;;3.94;100.00
29909;BME280;36247;51.952;6.146;2023-04-08T06:43:50;102356.81;;;4.02;100.00
29909;BME280;36247;51.952;6.146;2023-04-08T06:46:21;102365.47;;;4.01;100.00
29909;BME280;36247;51.952;6.146;2023-04-08T06:48:47;102362.75;;;4.00;100.00
29909;BME280;36247;51.952;6.146;2023-04-08T06:51:13;102367.59;;;3.94;100.00
29909;BME280;36247;51.952;6.146;2023-04-08T06:53:39;102367.09;;;3.99;100.00
29909;BME280;36247;51.952;6.146;2023-04-08T06:56:05;102369.91;;;3.89;100.00
29909;BME280;36247;51.952;6.146;2023-04-08T07:03:55;102379.56;;;4.44;100.00
29909;BME280;36247;51.952;6.146;2023-04-08T07:06:24;102392.00;;;4.61;100.00
29909;BME280;36247;51.952;6.146;2023-04-08T07:08:55;102400.91;;;4.63;100.00
29909;BME280;36247;51.952;6.146;2023-04-08T07:11:21;102393.50;;;4.71;100.00
29909;BME280;36247;51.952;6.146;2023-04-08T07:13:46;102407.09;;;4.79;100.00
29909;BME280;36247;51.952;6.146;2023-04-08T07:16:12;102403.88;;;4.83;100.00
29909;BME280;36247;51.952;6.146;2023-04-08T07:18:38;102397.91;;;4.85;100.00
29909;BME280;36247;51.952;6.146;2023-04-08T07:27:06;102387.16;;;5.10;100.00
29909;BME280;36247;51.952;6.146;2023-04-08T07:37:32;102405.00;;;5.01;100.00
29909;BME280;36247;51.952;6.146;2023-04-08T07:40:24;102401.56;;;5.02;100.00
29909;BME280;36247;51.952;6.146;2023-04-08T07:43:26;102403.59;;;5.21;100.00
29909;BME280;36247;51.952;6.146;2023-04-08T07:50:35;102410.50;;;5.34;100.00
29909;BME280;36247;51.952;6.146;2023-04-08T08:05:19;102412.88;;;6.04;100.00
29909;BME280;36247;51.952;6.146;2023-04-08T08:08:03;102414.91;;;6.56;100.00
29909;BME280;36247;51.952;6.146;2023-04-08T08:10:54;102428.78;;;6.85;100.00
29909;BME280;36247;51.952;6.146;2023-04-08T08:46:24;102430.22;;;9.27;100.00
29909;BME280;36247;51.952;6.146;2023-04-08T08:49:01;102430.13;;;9.45;100.00
29909;BME280;36247;51.952;6.146;2023-04-08T08:51:29;102435.63;;;9.71;100.00
29909;BME280;36247;51.952;6.146;2023-04-08T08:54:00;102436.09;;;9.82;100.00
29909;BME280;36247;51.952;6.146;2023-04-08T08:56:36;102437.84;;;9.81;100.00
29909;BME280;36247;51.952;6.146;2023-04-08T08:59:37;102429.34;;;10.32;100.00
29909;BME280;36247;51.952;6.146;2023-04-08T09:02:31;102439.38;;;10.18;100.00
29909;BME280;36247;51.952;6.146;2023-04-08T09:05:06;102428.59;;;10.35;100.00
29909;BME280;36247;51.952;6.146;2023-04-08T09:07:35;102430.97;;;10.50;100.00
29909;BME280;36247;51.952;6.146;2023-04-08T09:10:02;102427.44;;;10.96;100.00
29909;BME280;36247;51.952;6.146;2023-04-08T09:12:29;102418.75;;;11.00;100.00
29909;BME280;36247;51.952;6.146;2023-04-08T09:15:22;102421.41;;;10.77;100.00
29909;BME280;36247;51.952;6.146;2023-04-08T09:17:47;102408.41;;;11.32;100.00
29909;BME280;36247;51.952;6.146;2023-04-08T09:20:13;102415.81;;;11.41;100.00
29909;BME280;36247;51.952;6.146;2023-04-08T09:23:00;102416.84;;;11.72;100.00
29909;BME280;36247;51.952;6.146;2023-04-08T09:25:30;102419.53;;;12.25;100.00
29909;BME280;36247;51.952;6.146;2023-04-08T09:27:58;102423.72;;;11.39;100.00
29909;BME280;36247;51.952;6.146;2023-04-08T09:30:27;102426.97;;;12.35;100.00
29909;BME280;36247;51.952;6.146;2023-04-08T09:32:55;102424.34;;;13.26;100.00
29909;BME280;36247;51.952;6.146;2023-04-08T09:35:23;102425.94;;;13.85;100.00
29909;BME280;36247;51.952;6.146;2023-04-08T09:37:49;102426.56;;;13.74;100.00
29909;BME280;36247;51.952;6.146;2023-04-08T09:40:19;102421.47;;;13.84;100.00
29909;BME280;36247;51.952;6.146;2023-04-08T09:42:47;102429.19;;;13.73;100.00
29909;BME280;36247;51.952;6.146;2023-04-08T09:45:17;102426.00;;;13.86;100.00
29909;BME280;36247;51.952;6.146;2023-04-08T09:47:55;102416.28;;;14.61;100.00
29909;BME280;36247;51.952;6.146;2023-04-08T09:50:31;102432.25;;;14.23;100.00
29909;BME280;36247;51.952;6.146;2023-04-08T09:53:09;102432.28;;;14.25;100.00
29909;BME280;36247;51.952;6.146;2023-04-08T09:55:40;102434.78;;;14.95;100.00
29909;BME280;36247;51.952;6.146;2023-04-08T09:58:15;102424.50;;;15.15;100.00
29909;BME280;36247;51.952;6.146;2023-04-08T10:00:42;102442.63;;;14.49;100.00
29909;BME280;36247;51.952;6.146;2023-04-08T10:03:47;102442.78;;;13.18;100.00
29909;BME280;36247;51.952;6.146;2023-04-08T10:06:14;102443.28;;;12.76;100.00
29909;BME280;36247;51.952;6.146;2023-04-08T10:08:42;102446.03;;;12.50;100.00
29909;BME280;36247;51.952;6.146;2023-04-08T10:11:09;102439.03;;;12.52;100.00
29909;BME280;36247;51.952;6.146;2023-04-08T10:13:35;102445.09;;;12.48;100.00
29909;BME280;36247;51.952;6.146;2023-04-08T10:16:17;102445.09;;;12.48;100.00
29909;BME280;36247;51.952;6.146;2023-04-08T10:18:47;102443.53;;;12.55;100.00
29909;BME280;36247;51.952;6.146;2023-04-08T10:21:33;102440.25;;;12.64;100.00
29909;BME280;36247;51.952;6.146;2023-04-08T10:24:11;102433.53;;;12.75;100.00
29909;BME280;36247;51.952;6.146;2023-04-08T10:26:41;102442.34;;;12.45;100.00
29909;BME280;36247;51.952;6.146;2023-04-08T10:29:35;102437.84;;;12.43;100.00
29909;BME280;36247;51.952;6.146;2023-04-08T10:32:26;102453.25;;;12.26;100.00
29909;BME280;36247;51.952;6.146;2023-04-08T10:34:53;102441.88;;;12.31;100.00
29909;BME280;36247;51.952;6.146;2023-04-08T10:37:19;102429.34;;;12.26;100.00
29909;BME280;36247;51.952;6.146;2023-04-08T10:39:49;102437.91;;;12.17;100.00
29909;BME280;36247;51.952;6.146;2023-04-08T10:42:16;102442.13;;;12.38;100.00
29909;BME280;36247;51.952;6.146;2023-04-08T11:02:12;102417.91;;;15.89;100.00
29909;BME280;36247;51.952;6.146;2023-04-08T11:05:04;102421.31;;;14.51;100.00
29909;BME280;36247;51.952;6.146;2023-04-08T11:10:15;102427.06;;;13.93;100.00
29909;BME280;36247;51.952;6.146;2023-04-08T11:12:44;102424.09;;;13.82;100.00
29909;BME280;36247;51.952;6.146;2023-04-08T11:15:22;102417.09;;;13.86;100.00
29909;BME280;36247;51.952;6.146;2023-04-08T11:17:55;102417.59;;;14.06;100.00
29909;BME280;36247;51.952;6.146;2023-04-08T11:20:50;102422.53;;;13.90;100.00
29909;BME280;36247;51.952;6.146;2023-04-08T11:23:19;102412.38;;;13.74;100.00
29909;BME280;36247;51.952;6.146;2023-04-08T11:25:48;102410.31;;;13.32;100.00
29909;BME280;36247;51.952;6.146;2023-04-08T11:28:20;102416.91;;;13.45;100.00
29909;BME280;36247;51.952;6.146;2023-04-08T11:30:58;102410.69;;;12.83;100.00
29909;BME280;36247;51.952;6.146;2023-04-08T11:33:46;102409.38;;;12.98;100.00
29909;BME280;36247;51.952;6.146;2023-04-08T11:36:14;102408.19;;;13.18;100.00
29909;BME280;36247;51.952;6.146;2023-04-08T11:38:45;102407.22;;;13.16;100.00
29909;BME280;36247;51.952;6.146;2023-04-08T11:41:18;102411.69;;;13.17;100.00
29909;BME280;36247;51.952;6.146;2023-04-08T11:43:54;102408.84;;;13.11;100.00
29909;BME280;36247;51.952;6.146;2023-04-08T11:46:21;102415.09;;;13.42;100.00
29909;BME280;36247;51.952;6.146;2023-04-08T11:49:01;102417.81;;;13.45;100.00
29909;BME280;36247;51.952;6.146;2023-04-08T11:51:27;102423.84;;;13.09;100.00
29909;BME280;36247;51.952;6.146;2023-04-08T11:54:04;102427.09;;;13.29;100.00
29909;BME280;36247;51.952;6.146;2023-04-08T11:56:44;102425.41;;;13.33;100.00
29909;BME280;36247;51.952;6.146;2023-04-08T11:59:11;102430.41;;;13.52;100.00
29909;BME280;36247;51.952;6.146;2023-04-08T12:01:40;102437.75;;;14.31;100.00
29909;BME280;36247;51.952;6.146;2023-04-08T12:04:09;102422.31;;;15.85;100.00
29909;BME280;36247;51.952;6.146;2023-04-08T12:06:35;102424.41;;;16.05;100.00
29909;BME280;36247;51.952;6.146;2023-04-08T12:09:01;102419.78;;;15.95;100.00
29909;BME280;36247;51.952;6.146;2023-04-08T12:11:31;102435.75;;;15.00;100.00
29909;BME280;36247;51.952;6.146;2023-04-08T12:13:57;102430.25;;;14.51;100.00
29909;BME280;36247;51.952;6.146;2023-04-08T12:16:23;102434.75;;;14.17;100.00
29909;BME280;36247;51.952;6.146;2023-04-08T12:18:50;102430.78;;;14.00;100.00
29909;BME280;36247;51.952;6.146;2023-04-08T12:21:18;102431.28;;;13.85;100.00
29909;BME280;36247;51.952;6.146;2023-04-08T12:23:45;102418.69;;;13.79;100.00
29909;BME280;36247;51.952;6.146;2023-04-08T12:26:10;102431.50;;;13.94;100.00
29909;BME280;36247;51.952;6.146;2023-04-08T12:28:38;102434.25;;;13.62;100.00
29909;BME280;36247;51.952;6.146;2023-04-08T12:31:08;102438.38;;;13.51;100.00
29909;BME280;36247;51.952;6.146;2023-04-08T12:33:40;102440.34;;;13.58;100.00
29909;BME280;36247;51.952;6.146;2023-04-08T12:36:09;102431.34;;;13.53;100.00
29909;BME280;36247;51.952;6.146;2023-04-08T12:38:38;102427.00;;;13.56;100.00
29909;BME280;36247;51.952;6.146;2023-04-08T12:41:07;102434.19;;;13.29;100.00
29909;BME280;36247;51.952;6.146;2023-04-08T12:43:33;102416.47;;;13.29;100.00
29909;BME280;36247;51.952;6.146;2023-04-08T12:46:03;102422.63;;;13.58;100.00
29909;BME280;36247;51.952;6.146;2023-04-08T12:48:29;102412.38;;;13.74;100.00
29909;BME280;36247;51.952;6.146;2023-04-08T12:50:56;102411.69;;;13.49;100.00
29909;BME280;36247;51.952;6.146;2023-04-08T12:53:23;102423.72;;;14.02;100.00
29909;BME280;36247;51.952;6.146;2023-04-08T12:55:49;102427.72;;;13.84;100.00
29909;BME280;36247;51.952;6.146;2023-04-08T12:58:19;102436.06;;;13.63;100.00
29909;BME280;36247;51.952;6.146;2023-04-08T13:00:45;102427.16;;;13.63;100.00
29909;BME280;36247;51.952;6.146;2023-04-08T13:06:59;102425.84;;;13.80;100.00
29909;BME280;36247;51.952;6.146;2023-04-08T13:09:25;102426.44;;;14.03;100.00
29909;BME280;36247;51.952;6.146;2023-04-08T13:11:51;102416.31;;;15.06;100.00
29909;BME280;36247;51.952;6.146;2023-04-08T13:14:17;102414.50;;;15.05;100.00
29909;BME280;36247;51.952;6.146;2023-04-08T13:16:46;102408.22;;;15.01;100.00
29909;BME280;36247;51.952;6.146;2023-04-08T13:19:12;102421.38;;;14.14;100.00
29909;BME280;36247;51.952;6.146;2023-04-08T13:21:39;102419.41;;;14.07;100.00
29909;BME280;36247;51.952;6.146;2023-04-08T13:24:05;102416.06;;;13.81;100.00
29909;BME280;36247;51.952;6.146;2023-04-08T13:26:31;102419.13;;;13.61;100.00
29909;BME280;36247;51.952;6.146;2023-04-08T13:28:57;102415.53;;;13.59;100.00
29909;BME280;36247;51.952;6.146;2023-04-08T13:31:23;102424.59;;;13.34;100.00
29909;BME280;36247;51.952;6.146;2023-04-08T13:33:52;102418.56;;;13.39;100.00
29909;BME280;36247;51.952;6.146;2023-04-08T13:36:18;102416.91;;;13.45;100.00
29909;BME280;36247;51.952;6.146;2023-04-08T13:38:45;102409.66;;;13.39;100.00
29909;BME280;36247;51.952;6.146;2023-04-08T13:41:14;102414.44;;;13.52;100.00
29909;BME280;36247;51.952;6.146;2023-04-08T13:43:43;102414.13;;;13.40;100.00
29909;BME280;36247;51.952;6.146;2023-04-08T13:46:09;102420.00;;;13.30;100.00
29909;BME280;36247;51.952;6.146;2023-04-08T13:48:36;102411.47;;;13.40;100.00
29909;BME280;36247;51.952;6.146;2023-04-08T13:51:02;102416.91;;;13.45;100.00
29909;BME280;36247;51.952;6.146;2023-04-08T13:53:46;102417.69;;;13.74;100.00
29909;BME280;36247;51.952;6.146;2023-04-08T13:56:12;102409.50;;;13.66;100.00
29909;BME280;36247;51.952;6.146;2023-04-08T13:58:38;102408.91;;;16.40;100.00
29909;BME280;36247;51.952;6.146;2023-04-08T14:01:05;102412.47;;;15.83;100.00
29909;BME280;36247;51.952;6.146;2023-04-08T14:03:32;102398.56;;;17.39;100.00
29909;BME280;36247;51.952;6.146;2023-04-08T14:05:58;102401.88;;;18.01;100.00
29909;BME280;36247;51.952;6.146;2023-04-08T14:08:24;102387.31;;;19.12;100.00
29909;BME280;36247;51.952;6.146;2023-04-08T14:10:51;102397.53;;;17.24;100.00
29909;BME280;36247;51.952;6.146;2023-04-08T14:13:17;102393.31;;;18.60;98.13
29909;BME280;36247;51.952;6.146;2023-04-08T14:15:43;102394.91;;;18.26;92.52
29909;BME280;36247;51.952;6.146;2023-04-08T14:18:09;102389.91;;;18.94;97.04
29909;BME280;36247;51.952;6.146;2023-04-08T14:20:37;102387.13;;;18.78;94.98
29909;BME280;36247;51.952;6.146;2023-04-08T14:23:09;102386.44;;;19.35;85.15
29909;BME280;36247;51.952;6.146;2023-04-08T14:25:35;102390.84;;;19.05;80.57
29909;BME280;36247;51.952;6.146;2023-04-08T14:28:01;102386.47;;;19.38;88.76
29909;BME280;36247;51.952;6.146;2023-04-08T14:30:32;102393.19;;;18.39;100.00
29909;BME280;36247;51.952;6.146;2023-04-08T14:33:05;102388.22;;;19.34;100.00
29909;BME280;36247;51.952;6.146;2023-04-08T14:35:32;102387.34;;;20.42;82.60
29909;BME280;36247;51.952;6.146;2023-04-08T14:37:58;102386.50;;;19.73;89.85
29909;BME280;36247;51.952;6.146;2023-04-08T14:40:25;102389.63;;;18.40;92.65
29909;BME280;36247;51.952;6.146;2023-04-08T14:42:51;102375.19;;;18.24;98.32
29909;BME280;36247;51.952;6.146;2023-04-08T14:45:18;102365.84;;;19.40;97.65
29909;BME280;36247;51.952;6.146;2023-04-08T14:47:44;102372.09;;;19.33;94.34
29909;BME280;36247;51.952;6.146;2023-04-08T14:50:10;102373.91;;;19.46;98.68
29909;BME280;36247;51.952;6.146;2023-04-08T14:52:36;102371.00;;;18.67;100.00
29909;BME280;36247;51.952;6.146;2023-04-08T14:55:09;102382.03;;;17.85;100.00
29909;BME280;36247;51.952;6.146;2023-04-08T14:57:35;102375.25;;;17.30;100.00
29909;BME280;36247;51.952;6.146;2023-04-08T15:00:01;102371.91;;;16.74;100.00
29909;BME280;36247;51.952;6.146;2023-04-08T15:03:00;102373.28;;;17.10;100.00
29909;BME280;36247;51.952;6.146;2023-04-08T15:05:28;102375.69;;;16.87;100.00
29909;BME280;36247;51.952;6.146;2023-04-08T15:07:57;102372.66;;;16.64;100.00
29909;BME280;36247;51.952;6.146;2023-04-08T15:10:26;102373.13;;;16.32;100.00
29909;BME280;36247;51.952;6.146;2023-04-08T15:12:53;102368.09;;;15.94;100.00
29909;BME280;36247;51.952;6.146;2023-04-08T15:15:19;102357.00;;;16.92;100.00
29909;BME280;36247;51.952;6.146;2023-04-08T15:17:44;102347.81;;;18.91;100.00
29909;BME280;36247;51.952;6.146;2023-04-08T15:20:11;102349.63;;;19.00;100.00
29909;BME280;36247;51.952;6.146;2023-04-08T15:22:38;102355.22;;;17.85;100.00
29909;BME280;36247;51.952;6.146;2023-04-08T15:25:08;102360.75;;;17.08;100.00
29909;BME280;36247;51.952;6.146;2023-04-08T15:27:34;102353.06;;;16.65;100.00
29909;BME280;36247;51.952;6.146;2023-04-08T15:30:02;102356.00;;;16.19;100.00
29909;BME280;36247;51.952;6.146;2023-04-08T15:32:28;102360.91;;;15.90;100.00
29909;BME280;36247;51.952;6.146;2023-04-08T15:34:54;102356.88;;;15.63;100.00
29909;BME280;36247;51.952;6.146;2023-04-08T15:37:24;102362.06;;;15.54;100.00
29909;BME280;36247;51.952;6.146;2023-04-08T15:40:08;102358.50;;;17.50;100.00
29909;BME280;36247;51.952;6.146;2023-04-08T15:42:34;102355.19;;;16.89;100.00
29909;BME280;36247;51.952;6.146;2023-04-08T15:45:03;102356.13;;;16.27;100.00
29909;BME280;36247;51.952;6.146;2023-04-08T15:47:29;102355.88;;;15.58;100.00
29909;BME280;36247;51.952;6.146;2023-04-08T15:49:55;102369.25;;;15.09;100.00
29909;BME280;36247;51.952;6.146;2023-04-08T15:52:20;102378.19;;;15.11;100.00
29909;BME280;36247;51.952;6.146;2023-04-08T15:54:47;102368.94;;;14.94;100.00
29909;BME280;36247;51.952;6.146;2023-04-08T15:57:12;102371.50;;;14.89;100.00
29909;BME280;36247;51.952;6.146;2023-04-08T16:02:44;102381.66;;;14.63;100.00
29909;BME280;36247;51.952;6.146;2023-04-08T16:28:44;102390.25;;;13.77;100.00
29909;BME280;36247;51.952;6.146;2023-04-08T16:31:19;102387.28;;;13.66;100.00
29909;BME280;36247;51.952;6.146;2023-04-08T16:45:10;102399.91;;;13.09;100.00
29909;BME280;36247;51.952;6.146;2023-04-08T16:47:38;102401.72;;;13.10;100.00
29909;BME280;36247;51.952;6.146;2023-04-08T16:50:10;102396.63;;;13.18;100.00
29909;BME280;36247;51.952;6.146;2023-04-08T16:52:40;102397.25;;;13.09;100.00
29909;BME280;36247;51.952;6.146;2023-04-08T16:55:15;102396.66;;;12.87;100.00
29909;BME280;36247;51.952;6.146;2023-04-08T16:57:48;102399.41;;;12.91;100.00
29909;BME280;36247;51.952;6.146;2023-04-08T17:00:14;102394.03;;;12.89;100.00
29909;BME280;36247;51.952;6.146;2023-04-08T17:02:43;102401.06;;;12.87;100.00
29909;BME280;36247;51.952;6.146;2023-04-08T17:05:10;102400.91;;;12.81;100.00
29909;BME280;36247;51.952;6.146;2023-04-08T17:07:36;102405.78;;;12.67;100.00
29909;BME280;36247;51.952;6.146;2023-04-08T17:10:02;102409.56;;;12.46;100.00
29909;BME280;36247;51.952;6.146;2023-04-08T17:12:28;102419.22;;;12.43;100.00
29909;BME280;36247;51.952;6.146;2023-04-08T17:14:54;102409.00;;;12.28;100.00
29909;BME280;36247;51.952;6.146;2023-04-08T17:17:26;102413.19;;;12.20;100.00
29909;BME280;36247;51.952;6.146;2023-04-08T17:19:54;102418.81;;;12.29;100.00
29909;BME280;36247;51.952;6.146;2023-04-08T17:22:20;102415.50;;;12.36;100.00
29909;BME280;36247;51.952;6.146;2023-04-08T17:24:50;102409.09;;;12.31;100.00
29909;BME280;36247;51.952;6.146;2023-04-08T17:27:21;102418.16;;;12.36;100.00
29909;BME280;36247;51.952;6.146;2023-04-08T17:29:48;102417.72;;;12.24;100.00
29909;BME280;36247;51.952;6.146;2023-04-08T17:32:14;102420.81;;;12.36;100.00
29909;BME280;36247;51.952;6.146;2023-04-08T17:34:40;102424.31;;;12.08;100.00
29909;BME280;36247;51.952;6.146;2023-04-08T17:37:12;102426.41;;;11.92;100.00
29909;BME280;36247;51.952;6.146;2023-04-08T17:39:39;102426.41;;;11.92;100.00
29909;BME280;36247;51.952;6.146;2023-04-08T17:42:06;102429.81;;;11.88;100.00
29909;BME280;36247;51.952;6.146;2023-04-08T17:50:02;102440.28;;;11.58;100.00
29909;BME280;36247;51.952;6.146;2023-04-08T17:52:33;102435.69;;;11.54;100.00
29909;BME280;36247;51.952;6.146;2023-04-08T17:55:02;102428.34;;;11.45;100.00
29909;BME280;36247;51.952;6.146;2023-04-08T17:57:40;102426.22;;;11.35;100.00
29909;BME280;36247;51.952;6.146;2023-04-08T18:00:20;102432.34;;;11.34;100.00
29909;BME280;36247;51.952;6.146;2023-04-08T18:02:59;102443.31;;;11.19;100.00
29909;BME280;36247;51.952;6.146;2023-04-08T18:08:58;102454.19;;;11.26;100.00
29909;BME280;36247;51.952;6.146;2023-04-08T18:11:43;102448.03;;;11.27;100.00
29909;BME280;36247;51.952;6.146;2023-04-08T18:14:18;102454.47;;;11.10;100.00
29909;BME280;36247;51.952;6.146;2023-04-08T18:16:54;102454.00;;;10.98;100.00
29909;BME280;36247;51.952;6.146;2023-04-08T18:19:24;102462.97;;;11.01;100.00
29909;BME280;36247;51.952;6.146;2023-04-08T18:22:02;102459.25;;;10.96;100.00
29909;BME280;36247;51.952;6.146;2023-04-08T18:24:28;102470.88;;;11.00;100.00
29909;BME280;36247;51.952;6.146;2023-04-08T18:27:02;102466.66;;;11.05;100.00
29909;BME280;36247;51.952;6.146;2023-04-08T18:50:47;102483.00;;;10.70;100.00
29909;BME280;36247;51.952;6.146;2023-04-08T18:53:14;102479.09;;;10.83;100.00
29909;BME280;36247;51.952;6.146;2023-04-08T18:55:41;102488.91;;;10.63;100.00
29909;BME280;36247;51.952;6.146;2023-04-08T18:58:10;102491.47;;;10.39;100.00
29909;BME280;36247;51.952;6.146;2023-04-08T19:00:37;102488.16;;;10.45;100.00
29909;BME280;36247;51.952;6.146;2023-04-08T19:03:11;102490.78;;;10.23;100.00
29909;BME280;36247;51.952;6.146;2023-04-08T19:05:38;102489.44;;;10.12;100.00
29909;BME280;36247;51.952;6.146;2023-04-08T19:08:05;102488.72;;;10.16;100.00
29909;BME280;36247;51.952;6.146;2023-04-08T19:10:32;102489.78;;;10.20;100.00
29909;BME280;36247;51.952;6.146;2023-04-08T19:12:59;102493.81;;;10.12;100.00
29909;BME280;36247;51.952;6.146;2023-04-08T19:15:25;102493.88;;;10.13;100.00
29909;BME280;36247;51.952;6.146;2023-04-08T19:17:51;102495.91;;;9.98;100.00
29909;BME280;36247;51.952;6.146;2023-04-08T19:20:17;102497.66;;;9.97;100.00
29909;BME280;36247;51.952;6.146;2023-04-08T19:22:43;102503.19;;;9.82;100.00
29909;BME280;36247;51.952;6.146;2023-04-08T19:25:12;102503.44;;;9.88;100.00
29909;BME280;36247;51.952;6.146;2023-04-08T19:27:39;102520.34;;;9.92;100.00
29909;BME280;36247;51.952;6.146;2023-04-08T19:30:05;102507.88;;;10.09;100.00
29909;BME280;36247;51.952;6.146;2023-04-08T19:32:33;102505.66;;;10.20;100.00
29909;BME280;36247;51.952;6.146;2023-04-08T19:35:00;102514.81;;;10.07;100.00
29909;BME280;36247;51.952;6.146;2023-04-08T19:37:26;102510.41;;;10.07;100.00
29909;BME280;36247;51.952;6.146;2023-04-08T19:40:05;102512.03;;;10.04;100.00
29909;BME280;36247;51.952;6.146;2023-04-08T19:45:36;102515.25;;;9.97;100.00
29909;BME280;36247;51.952;6.146;2023-04-08T19:48:02;102519.53;;;9.93;100.00
29909;BME280;36247;51.952;6.146;2023-04-08T19:50:28;102514.38;;;9.96;100.00
29909;BME280;36247;51.952;6.146;2023-04-08T19:52:54;102520.41;;;9.94;100.00
29909;BME280;36247;51.952;6.146;2023-04-08T19:55:20;102513.59;;;9.99;100.00
29909;BME280;36247;51.952;6.146;2023-04-08T19:57:46;102512.09;;;10.05;100.00
29909;BME280;36247;51.952;6.146;2023-04-08T20:00:12;102514.13;;;10.11;100.00
29909;BME280;36247;51.952;6.146;2023-04-08T20:02:38;102511.28;;;10.06;100.00